sensor_id;sensor_type;location;lat;lon;timestamp;P1;durP1;ratioP1;P2;durP2;ratioP2
20294;SDS011;10306;52.128;5.208;2023-02-25T00:01:08;9.90;;;1.83;;
20294;SDS011;10306;52.128;5.208;2023-02-25T00:03:35;2.90;;;1.30;;
20294;SDS011;10306;52.128;5.208;2023-02-25T00:06:02;8.47;;;1.67;;
20294;SDS011;10306;52.128;5.208;2023-02-25T00:08:28;4.47;;;1.67;;
20294;SDS011;10306;52.128;5.208;2023-02-25T00:11:01;9.37;;;1.23;;
20294;SDS011;10306;52.128;5.208;2023-02-25T00:13:27;4.20;;;1.30;;
20294;SDS011;10306;52.128;5.208;2023-02-25T00:15:53;7.43;;;1.10;;
20294;SDS011;10306;52.128;5.208;2023-02-25T00:18:22;9.13;;;1.50;;
20294;SDS011;10306;52.128;5.208;2023-02-25T00:20:48;6.90;;;1.17;;
20294;SDS011;10306;52.128;5.208;2023-02-25T00:23:13;7.40;;;1.30;;
20294;SDS011;10306;52.128;5.208;2023-02-25T00:25:39;2.57;;;0.97;;
20294;SDS011;10306;52.128;5.208;2023-02-25T00:28:05;3.83;;;0.87;;
20294;SDS011;10306;52.128;5.208;2023-02-25T00:30:32;3.97;;;1.30;;
20294;SDS011;10306;52.128;5.208;2023-02-25T00:32:58;0.77;;;0.70;;
20294;SDS011;10306;52.128;5.208;2023-02-25T00:35:24;4.47;;;0.80;;
20294;SDS011;10306;52.128;5.208;2023-02-25T00:37:50;3.33;;;0.60;;
20294;SDS011;10306;52.128;5.208;2023-02-25T00:40:17;6.53;;;1.03;;
20294;SDS011;10306;52.128;5.208;2023-02-25T00:42:43;3.57;;;1.10;;
20294;SDS011;10306;52.128;5.208;2023-02-25T00:45:09;6.20;;;1.07;;
20294;SDS011;10306;52.128;5.208;2023-02-25T00:47:36;5.83;;;0.80;;
20294;SDS011;10306;52.128;5.208;2023-02-25T00:50:03;3.60;;;0.73;;
20294;SDS011;10306;52.128;5.208;2023-02-25T00:52:29;3.77;;;0.83;;
20294;SDS011;10306;52.128;5.208;2023-02-25T00:54:55;3.80;;;1.00;;
20294;SDS011;10306;52.128;5.208;2023-02-25T00:57:21;3.70;;;1.07;;
20294;SDS011;10306;52.128;5.208;2023-02-25T00:59:47;1.43;;;0.97;;
20294;SDS011;10306;52.128;5.208;2023-02-25T01:02:14;4.83;;;1.17;;
20294;SDS011;10306;52.128;5.208;2023-02-25T01:04:39;5.33;;;0.90;;
20294;SDS011;10306;52.128;5.208;2023-02-25T01:07:05;5.13;;;1.27;;
20294;SDS011;10306;52.128;5.208;2023-02-25T01:09:31;2.60;;;1.50;;
20294;SDS011;10306;52.128;5.208;2023-02-25T01:11:57;4.93;;;1.17;;
20294;SDS011;10306;52.128;5.208;2023-02-25T01:14:24;4.10;;;1.37;;
20294;SDS011;10306;52.128;5.208;2023-02-25T01:16:51;2.43;;;1.10;;
20294;SDS011;10306;52.128;5.208;2023-02-25T01:19:18;3.10;;;1.07;;
20294;SDS011;10306;52.128;5.208;2023-02-25T01:21:46;8.37;;;1.23;;
20294;SDS011;10306;52.128;5.208;2023-02-25T01:24:13;8.63;;;1.63;;
20294;SDS011;10306;52.128;5.208;2023-02-25T01:26:40;5.77;;;1.60;;
20294;SDS011;10306;52.128;5.208;2023-02-25T01:29:11;8.27;;;1.80;;
20294;SDS011;10306;52.128;5.208;2023-02-25T01:31:37;6.80;;;1.60;;
20294;SDS011;10306;52.128;5.208;2023-02-25T01:34:04;8.50;;;1.40;;
20294;SDS011;10306;52.128;5.208;2023-02-25T01:36:30;7.87;;;1.80;;
20294;SDS011;10306;52.128;5.208;2023-02-25T01:38:57;12.73;;;1.80;;
20294;SDS011;10306;52.128;5.208;2023-02-25T01:41:24;6.53;;;1.70;;
20294;SDS011;10306;52.128;5.208;2023-02-25T01:46:46;7.70;;;1.10;;
20294;SDS011;10306;52.128;5.208;2023-02-25T01:51:49;5.03;;;1.40;;
20294;SDS011;10306;52.128;5.208;2023-02-25T01:54:16;8.53;;;1.47;;
20294;SDS011;10306;52.128;5.208;2023-02-25T01:56:43;2.40;;;1.20;;
20294;SDS011;10306;52.128;5.208;2023-02-25T01:59:12;11.17;;;1.70;;
20294;SDS011;10306;52.128;5.208;2023-02-25T02:01:39;5.70;;;1.10;;
20294;SDS011;10306;52.128;5.208;2023-02-25T02:04:06;5.37;;;1.43;;
20294;SDS011;10306;52.128;5.208;2023-02-25T02:06:39;8.23;;;1.90;;
20294;SDS011;10306;52.128;5.208;2023-02-25T02:09:07;10.73;;;1.80;;
20294;SDS011;10306;52.128;5.208;2023-02-25T02:11:33;6.43;;;1.50;;
20294;SDS011;10306;52.128;5.208;2023-02-25T02:13:59;16.17;;;1.80;;
20294;SDS011;10306;52.128;5.208;2023-02-25T02:19:37;11.67;;;1.80;;
20294;SDS011;10306;52.128;5.208;2023-02-25T02:21:54;8.53;;;2.17;;
20294;SDS011;10306;52.128;5.208;2023-02-25T02:29:28;10.63;;;1.63;;
20294;SDS011;10306;52.128;5.208;2023-02-25T02:34:34;11.43;;;1.80;;
20294;SDS011;10306;52.128;5.208;2023-02-25T02:47:24;5.20;;;1.40;;
20294;SDS011;10306;52.128;5.208;2023-02-25T02:52:20;14.60;;;1.63;;
20294;SDS011;10306;52.128;5.208;2023-02-25T02:54:51;18.33;;;1.90;;
20294;SDS011;10306;52.128;5.208;2023-02-25T02:57:20;9.30;;;1.70;;
20294;SDS011;10306;52.128;5.208;2023-02-25T02:59:54;7.87;;;1.57;;
20294;SDS011;10306;52.128;5.208;2023-02-25T03:02:22;13.70;;;2.17;;
20294;SDS011;10306;52.128;5.208;2023-02-25T03:04:52;13.97;;;2.03;;
20294;SDS011;10306;52.128;5.208;2023-02-25T03:07:19;9.93;;;2.20;;
20294;SDS011;10306;52.128;5.208;2023-02-25T03:09:50;14.33;;;1.73;;
20294;SDS011;10306;52.128;5.208;2023-02-25T03:12:17;7.73;;;1.97;;
20294;SDS011;10306;52.128;5.208;2023-02-25T03:14:43;19.97;;;2.37;;
20294;SDS011;10306;52.128;5.208;2023-02-25T03:17:23;6.73;;;1.80;;
20294;SDS011;10306;52.128;5.208;2023-02-25T03:19:51;8.03;;;1.80;;
20294;SDS011;10306;52.128;5.208;2023-02-25T03:22:25;13.00;;;1.90;;
20294;SDS011;10306;52.128;5.208;2023-02-25T03:24:53;11.63;;;2.93;;
20294;SDS011;10306;52.128;5.208;2023-02-25T03:29:46;8.10;;;1.90;;
20294;SDS011;10306;52.128;5.208;2023-02-25T03:32:12;9.17;;;1.90;;
20294;SDS011;10306;52.128;5.208;2023-02-25T03:34:41;6.53;;;2.07;;
20294;SDS011;10306;52.128;5.208;2023-02-25T03:37:10;9.90;;;1.93;;
20294;SDS011;10306;52.128;5.208;2023-02-25T03:39:38;5.50;;;1.50;;
20294;SDS011;10306;52.128;5.208;2023-02-25T03:42:08;13.00;;;2.53;;
20294;SDS011;10306;52.128;5.208;2023-02-25T03:44:38;9.67;;;2.27;;
20294;SDS011;10306;52.128;5.208;2023-02-25T03:47:06;9.13;;;1.77;;
20294;SDS011;10306;52.128;5.208;2023-02-25T03:49:43;7.20;;;1.87;;
20294;SDS011;10306;52.128;5.208;2023-02-25T03:52:13;12.07;;;2.17;;
20294;SDS011;10306;52.128;5.208;2023-02-25T03:54:40;4.43;;;1.40;;
20294;SDS011;10306;52.128;5.208;2023-02-25T03:57:06;14.37;;;1.73;;
20294;SDS011;10306;52.128;5.208;2023-02-25T03:59:31;12.70;;;1.83;;
20294;SDS011;10306;52.128;5.208;2023-02-25T04:01:58;12.53;;;1.93;;
20294;SDS011;10306;52.128;5.208;2023-02-25T04:04:25;9.33;;;2.10;;
20294;SDS011;10306;52.128;5.208;2023-02-25T04:06:51;9.97;;;1.83;;
20294;SDS011;10306;52.128;5.208;2023-02-25T04:09:17;10.00;;;1.97;;
20294;SDS011;10306;52.128;5.208;2023-02-25T04:11:44;12.37;;;1.77;;
20294;SDS011;10306;52.128;5.208;2023-02-25T04:14:10;12.20;;;2.00;;
20294;SDS011;10306;52.128;5.208;2023-02-25T04:16:35;14.33;;;2.43;;
20294;SDS011;10306;52.128;5.208;2023-02-25T04:19:01;14.80;;;2.23;;
20294;SDS011;10306;52.128;5.208;2023-02-25T04:21:29;9.40;;;2.07;;
20294;SDS011;10306;52.128;5.208;2023-02-25T04:23:55;9.50;;;2.17;;
20294;SDS011;10306;52.128;5.208;2023-02-25T04:26:21;12.90;;;1.87;;
20294;SDS011;10306;52.128;5.208;2023-02-25T04:28:47;10.23;;;1.67;;
20294;SDS011;10306;52.128;5.208;2023-02-25T04:31:13;9.50;;;1.77;;
20294;SDS011;10306;52.128;5.208;2023-02-25T04:33:39;12.53;;;1.90;;
20294;SDS011;10306;52.128;5.208;2023-02-25T04:36:05;10.43;;;1.70;;
20294;SDS011;10306;52.128;5.208;2023-02-25T04:38:46;15.07;;;2.20;;
20294;SDS011;10306;52.128;5.208;2023-02-25T04:41:11;6.27;;;1.60;;
20294;SDS011;10306;52.128;5.208;2023-02-25T04:43:37;11.80;;;1.73;;
20294;SDS011;10306;52.128;5.208;2023-02-25T04:46:03;9.60;;;1.57;;
20294;SDS011;10306;52.128;5.208;2023-02-25T04:48:29;9.13;;;1.60;;
20294;SDS011;10306;52.128;5.208;2023-02-25T04:50:59;10.33;;;2.63;;
20294;SDS011;10306;52.128;5.208;2023-02-25T04:53:25;6.20;;;1.50;;
20294;SDS011;10306;52.128;5.208;2023-02-25T04:55:51;6.57;;;1.87;;
20294;SDS011;10306;52.128;5.208;2023-02-25T04:58:17;6.27;;;1.17;;
20294;SDS011;10306;52.128;5.208;2023-02-25T05:00:43;7.83;;;1.43;;
20294;SDS011;10306;52.128;5.208;2023-02-25T05:03:13;13.13;;;2.03;;
20294;SDS011;10306;52.128;5.208;2023-02-25T05:05:39;9.70;;;1.67;;
20294;SDS011;10306;52.128;5.208;2023-02-25T05:08:05;9.80;;;1.63;;
20294;SDS011;10306;52.128;5.208;2023-02-25T05:10:31;8.37;;;1.70;;
20294;SDS011;10306;52.128;5.208;2023-02-25T05:12:57;10.43;;;1.80;;
20294;SDS011;10306;52.128;5.208;2023-02-25T05:15:23;12.73;;;2.00;;
20294;SDS011;10306;52.128;5.208;2023-02-25T05:17:49;9.93;;;1.50;;
20294;SDS011;10306;52.128;5.208;2023-02-25T05:20:15;9.00;;;1.97;;
20294;SDS011;10306;52.128;5.208;2023-02-25T05:22:41;7.00;;;1.77;;
20294;SDS011;10306;52.128;5.208;2023-02-25T05:25:07;14.13;;;1.70;;
20294;SDS011;10306;52.128;5.208;2023-02-25T05:27:33;10.97;;;2.43;;
20294;SDS011;10306;52.128;5.208;2023-02-25T05:29:59;10.83;;;1.70;;
20294;SDS011;10306;52.128;5.208;2023-02-25T05:32:26;14.57;;;2.13;;
20294;SDS011;10306;52.128;5.208;2023-02-25T05:34:51;12.27;;;1.63;;
20294;SDS011;10306;52.128;5.208;2023-02-25T05:37:17;5.97;;;1.50;;
20294;SDS011;10306;52.128;5.208;2023-02-25T05:39:43;7.03;;;1.77;;
20294;SDS011;10306;52.128;5.208;2023-02-25T05:42:09;6.83;;;1.67;;
20294;SDS011;10306;52.128;5.208;2023-02-25T05:44:35;12.30;;;1.87;;
20294;SDS011;10306;52.128;5.208;2023-02-25T05:47:01;8.10;;;2.00;;
20294;SDS011;10306;52.128;5.208;2023-02-25T05:49:27;11.87;;;1.80;;
20294;SDS011;10306;52.128;5.208;2023-02-25T05:51:53;9.93;;;1.97;;
20294;SDS011;10306;52.128;5.208;2023-02-25T05:54:19;8.97;;;2.23;;
20294;SDS011;10306;52.128;5.208;2023-02-25T05:56:45;11.07;;;2.53;;
20294;SDS011;10306;52.128;5.208;2023-02-25T05:59:11;8.73;;;2.03;;
20294;SDS011;10306;52.128;5.208;2023-02-25T06:01:37;10.37;;;1.40;;
20294;SDS011;10306;52.128;5.208;2023-02-25T06:04:03;9.93;;;2.20;;
20294;SDS011;10306;52.128;5.208;2023-02-25T06:06:29;11.43;;;1.77;;
20294;SDS011;10306;52.128;5.208;2023-02-25T06:08:56;7.20;;;1.90;;
20294;SDS011;10306;52.128;5.208;2023-02-25T06:11:23;6.60;;;1.70;;
20294;SDS011;10306;52.128;5.208;2023-02-25T06:13:50;15.67;;;1.67;;
20294;SDS011;10306;52.128;5.208;2023-02-25T06:16:16;10.50;;;2.33;;
20294;SDS011;10306;52.128;5.208;2023-02-25T06:18:42;3.00;;;1.37;;
20294;SDS011;10306;52.128;5.208;2023-02-25T06:21:13;12.97;;;2.13;;
20294;SDS011;10306;52.128;5.208;2023-02-25T06:23:39;8.40;;;1.50;;
20294;SDS011;10306;52.128;5.208;2023-02-25T06:26:06;9.50;;;1.73;;
20294;SDS011;10306;52.128;5.208;2023-02-25T06:28:33;10.33;;;2.23;;
20294;SDS011;10306;52.128;5.208;2023-02-25T06:30:59;14.70;;;1.97;;
20294;SDS011;10306;52.128;5.208;2023-02-25T06:33:25;8.27;;;1.93;;
20294;SDS011;10306;52.128;5.208;2023-02-25T06:35:54;10.60;;;1.70;;
20294;SDS011;10306;52.128;5.208;2023-02-25T06:38:20;9.90;;;1.80;;
20294;SDS011;10306;52.128;5.208;2023-02-25T06:40:47;8.70;;;2.07;;
20294;SDS011;10306;52.128;5.208;2023-02-25T06:43:13;8.40;;;1.70;;
20294;SDS011;10306;52.128;5.208;2023-02-25T06:45:39;10.50;;;2.03;;
20294;SDS011;10306;52.128;5.208;2023-02-25T06:48:05;12.07;;;2.83;;
20294;SDS011;10306;52.128;5.208;2023-02-25T06:50:31;10.87;;;1.80;;
20294;SDS011;10306;52.128;5.208;2023-02-25T06:52:58;12.10;;;1.63;;
20294;SDS011;10306;52.128;5.208;2023-02-25T06:55:24;14.03;;;2.20;;
20294;SDS011;10306;52.128;5.208;2023-02-25T06:57:50;13.23;;;2.80;;
20294;SDS011;10306;52.128;5.208;2023-02-25T07:00:18;13.50;;;2.53;;
20294;SDS011;10306;52.128;5.208;2023-02-25T07:02:44;8.07;;;1.77;;
20294;SDS011;10306;52.128;5.208;2023-02-25T07:05:10;6.07;;;1.20;;
20294;SDS011;10306;52.128;5.208;2023-02-25T07:07:36;9.03;;;2.03;;
20294;SDS011;10306;52.128;5.208;2023-02-25T07:10:02;10.60;;;1.97;;
20294;SDS011;10306;52.128;5.208;2023-02-25T07:12:28;14.10;;;1.97;;
20294;SDS011;10306;52.128;5.208;2023-02-25T07:14:55;10.73;;;2.03;;
20294;SDS011;10306;52.128;5.208;2023-02-25T07:17:21;17.40;;;2.27;;
20294;SDS011;10306;52.128;5.208;2023-02-25T07:19:47;14.47;;;2.37;;
20294;SDS011;10306;52.128;5.208;2023-02-25T07:22:13;12.33;;;2.10;;
20294;SDS011;10306;52.128;5.208;2023-02-25T07:24:39;14.70;;;1.77;;
20294;SDS011;10306;52.128;5.208;2023-02-25T07:27:05;9.77;;;1.90;;
20294;SDS011;10306;52.128;5.208;2023-02-25T07:29:32;9.77;;;1.63;;
20294;SDS011;10306;52.128;5.208;2023-02-25T07:31:58;8.70;;;1.80;;
20294;SDS011;10306;52.128;5.208;2023-02-25T07:34:24;9.93;;;1.50;;
20294;SDS011;10306;52.128;5.208;2023-02-25T07:36:51;8.53;;;1.57;;
20294;SDS011;10306;52.128;5.208;2023-02-25T07:39:16;5.70;;;1.53;;
20294;SDS011;10306;52.128;5.208;2023-02-25T07:41:42;11.13;;;2.10;;
20294;SDS011;10306;52.128;5.208;2023-02-25T07:44:08;7.13;;;1.87;;
20294;SDS011;10306;52.128;5.208;2023-02-25T07:46:34;17.93;;;2.27;;
20294;SDS011;10306;52.128;5.208;2023-02-25T07:49:00;10.73;;;2.10;;
20294;SDS011;10306;52.128;5.208;2023-02-25T07:51:27;12.20;;;2.30;;
20294;SDS011;10306;52.128;5.208;2023-02-25T07:53:53;9.87;;;1.90;;
20294;SDS011;10306;52.128;5.208;2023-02-25T07:56:20;9.37;;;2.00;;
20294;SDS011;10306;52.128;5.208;2023-02-25T07:58:46;9.13;;;2.00;;
20294;SDS011;10306;52.128;5.208;2023-02-25T08:01:26;11.03;;;1.87;;
20294;SDS011;10306;52.128;5.208;2023-02-25T08:03:53;12.57;;;1.47;;
20294;SDS011;10306;52.128;5.208;2023-02-25T08:06:20;5.30;;;1.63;;
20294;SDS011;10306;52.128;5.208;2023-02-25T08:08:46;16.37;;;3.07;;
20294;SDS011;10306;52.128;5.208;2023-02-25T08:11:14;8.03;;;1.47;;
20294;SDS011;10306;52.128;5.208;2023-02-25T08:13:40;7.23;;;1.60;;
20294;SDS011;10306;52.128;5.208;2023-02-25T08:16:07;4.70;;;1.10;;
20294;SDS011;10306;52.128;5.208;2023-02-25T08:18:34;4.90;;;1.20;;
20294;SDS011;10306;52.128;5.208;2023-02-25T08:21:00;6.80;;;1.30;;
20294;SDS011;10306;52.128;5.208;2023-02-25T08:23:28;6.43;;;1.50;;
20294;SDS011;10306;52.128;5.208;2023-02-25T08:25:54;5.17;;;1.20;;
20294;SDS011;10306;52.128;5.208;2023-02-25T08:28:21;7.73;;;1.60;;
20294;SDS011;10306;52.128;5.208;2023-02-25T08:30:48;14.40;;;1.53;;
20294;SDS011;10306;52.128;5.208;2023-02-25T08:33:14;5.87;;;1.47;;
20294;SDS011;10306;52.128;5.208;2023-02-25T08:35:40;4.17;;;1.63;;
20294;SDS011;10306;52.128;5.208;2023-02-25T08:38:06;12.03;;;1.50;;
20294;SDS011;10306;52.128;5.208;2023-02-25T08:40:32;8.60;;;1.33;;
20294;SDS011;10306;52.128;5.208;2023-02-25T08:42:58;11.23;;;1.90;;
20294;SDS011;10306;52.128;5.208;2023-02-25T08:45:24;13.67;;;3.00;;
20294;SDS011;10306;52.128;5.208;2023-02-25T08:47:49;5.63;;;1.27;;
20294;SDS011;10306;52.128;5.208;2023-02-25T08:50:16;8.20;;;2.47;;
20294;SDS011;10306;52.128;5.208;2023-02-25T08:52:42;9.90;;;1.53;;
20294;SDS011;10306;52.128;5.208;2023-02-25T08:55:08;4.60;;;1.27;;
20294;SDS011;10306;52.128;5.208;2023-02-25T08:57:38;6.67;;;1.83;;
20294;SDS011;10306;52.128;5.208;2023-02-25T09:00:04;7.47;;;2.00;;
20294;SDS011;10306;52.128;5.208;2023-02-25T09:02:31;6.70;;;1.50;;
20294;SDS011;10306;52.128;5.208;2023-02-25T09:04:57;5.73;;;1.20;;
20294;SDS011;10306;52.128;5.208;2023-02-25T09:07:23;3.63;;;1.37;;
20294;SDS011;10306;52.128;5.208;2023-02-25T09:09:48;5.83;;;0.93;;
20294;SDS011;10306;52.128;5.208;2023-02-25T09:12:14;5.03;;;1.20;;
20294;SDS011;10306;52.128;5.208;2023-02-25T09:14:40;2.40;;;1.20;;
20294;SDS011;10306;52.128;5.208;2023-02-25T09:17:08;1.23;;;0.90;;
20294;SDS011;10306;52.128;5.208;2023-02-25T09:19:34;4.20;;;1.13;;
20294;SDS011;10306;52.128;5.208;2023-02-25T09:22:04;3.00;;;1.03;;
20294;SDS011;10306;52.128;5.208;2023-02-25T09:24:30;4.23;;;1.00;;
20294;SDS011;10306;52.128;5.208;2023-02-25T09:26:57;3.43;;;1.17;;
20294;SDS011;10306;52.128;5.208;2023-02-25T09:29:24;2.33;;;0.97;;
20294;SDS011;10306;52.128;5.208;2023-02-25T09:31:50;7.40;;;1.20;;
20294;SDS011;10306;52.128;5.208;2023-02-25T09:34:17;1.63;;;1.10;;
20294;SDS011;10306;52.128;5.208;2023-02-25T09:36:44;2.13;;;1.63;;
20294;SDS011;10306;52.128;5.208;2023-02-25T09:39:10;3.53;;;1.10;;
20294;SDS011;10306;52.128;5.208;2023-02-25T09:41:42;3.93;;;1.00;;
20294;SDS011;10306;52.128;5.208;2023-02-25T09:46:36;2.60;;;1.00;;
20294;SDS011;10306;52.128;5.208;2023-02-25T09:49:06;2.93;;;0.93;;
20294;SDS011;10306;52.128;5.208;2023-02-25T09:51:36;3.33;;;0.80;;
20294;SDS011;10306;52.128;5.208;2023-02-25T09:56:32;1.30;;;0.80;;
20294;SDS011;10306;52.128;5.208;2023-02-25T09:58:59;2.60;;;0.70;;
20294;SDS011;10306;52.128;5.208;2023-02-25T10:01:35;0.80;;;0.50;;
20294;SDS011;10306;52.128;5.208;2023-02-25T10:04:12;0.70;;;0.70;;
20294;SDS011;10306;52.128;5.208;2023-02-25T10:06:41;1.90;;;0.90;;
20294;SDS011;10306;52.128;5.208;2023-02-25T10:16:50;2.37;;;0.60;;
20294;SDS011;10306;52.128;5.208;2023-02-25T10:19:34;0.77;;;0.63;;
20294;SDS011;10306;52.128;5.208;2023-02-25T10:22:13;3.13;;;0.70;;
20294;SDS011;10306;52.128;5.208;2023-02-25T10:24:43;3.90;;;0.80;;
20294;SDS011;10306;52.128;5.208;2023-02-25T10:27:27;3.53;;;0.70;;
20294;SDS011;10306;52.128;5.208;2023-02-25T10:30:13;1.83;;;0.90;;
20294;SDS011;10306;52.128;5.208;2023-02-25T10:32:40;3.57;;;1.00;;
20294;SDS011;10306;52.128;5.208;2023-02-25T10:35:16;1.70;;;0.70;;
20294;SDS011;10306;52.128;5.208;2023-02-25T10:37:43;1.37;;;0.70;;
20294;SDS011;10306;52.128;5.208;2023-02-25T10:40:16;2.23;;;0.90;;
20294;SDS011;10306;52.128;5.208;2023-02-25T10:42:45;1.23;;;0.60;;
20294;SDS011;10306;52.128;5.208;2023-02-25T10:45:12;3.03;;;0.73;;
20294;SDS011;10306;52.128;5.208;2023-02-25T10:47:44;3.37;;;1.63;;
20294;SDS011;10306;52.128;5.208;2023-02-25T10:52:56;0.70;;;0.70;;
20294;SDS011;10306;52.128;5.208;2023-02-25T10:55:24;9.07;;;0.77;;
20294;SDS011;10306;52.128;5.208;2023-02-25T10:57:50;2.43;;;0.80;;
20294;SDS011;10306;52.128;5.208;2023-02-25T11:00:27;4.20;;;1.07;;
20294;SDS011;10306;52.128;5.208;2023-02-25T11:02:53;0.60;;;0.60;;
20294;SDS011;10306;52.128;5.208;2023-02-25T11:05:28;1.60;;;0.80;;
20294;SDS011;10306;52.128;5.208;2023-02-25T11:07:54;2.03;;;0.73;;
20294;SDS011;10306;52.128;5.208;2023-02-25T11:10:21;1.83;;;1.10;;
20294;SDS011;10306;52.128;5.208;2023-02-25T11:12:52;1.17;;;1.07;;
20294;SDS011;10306;52.128;5.208;2023-02-25T11:17:45;3.03;;;1.03;;
20294;SDS011;10306;52.128;5.208;2023-02-25T11:20:23;2.73;;;0.80;;
20294;SDS011;10306;52.128;5.208;2023-02-25T11:22:52;2.87;;;0.90;;
20294;SDS011;10306;52.128;5.208;2023-02-25T11:25:21;2.10;;;1.00;;
20294;SDS011;10306;52.128;5.208;2023-02-25T11:27:53;3.60;;;0.83;;
20294;SDS011;10306;52.128;5.208;2023-02-25T11:30:31;1.87;;;0.90;;
20294;SDS011;10306;52.128;5.208;2023-02-25T11:32:57;2.73;;;0.80;;
20294;SDS011;10306;52.128;5.208;2023-02-25T11:35:27;2.37;;;0.93;;
20294;SDS011;10306;52.128;5.208;2023-02-25T11:37:55;3.50;;;1.23;;
20294;SDS011;10306;52.128;5.208;2023-02-25T11:40:26;1.20;;;1.10;;
20294;SDS011;10306;52.128;5.208;2023-02-25T11:45:28;2.37;;;0.73;;
20294;SDS011;10306;52.128;5.208;2023-02-25T11:47:55;2.33;;;0.83;;
20294;SDS011;10306;52.128;5.208;2023-02-25T11:50:29;2.00;;;0.90;;
20294;SDS011;10306;52.128;5.208;2023-02-25T11:53:01;0.70;;;0.70;;
20294;SDS011;10306;52.128;5.208;2023-02-25T12:05:45;2.30;;;1.07;;
20294;SDS011;10306;52.128;5.208;2023-02-25T12:11:18;4.27;;;1.00;;
20294;SDS011;10306;52.128;5.208;2023-02-25T12:22:12;2.10;;;1.10;;
20294;SDS011;10306;52.128;5.208;2023-02-25T12:24:57;4.23;;;1.20;;
20294;SDS011;10306;52.128;5.208;2023-02-25T12:30:00;4.50;;;1.27;;
20294;SDS011;10306;52.128;5.208;2023-02-25T12:45:24;2.70;;;1.10;;
20294;SDS011;10306;52.128;5.208;2023-02-25T12:51:04;1.37;;;1.27;;
20294;SDS011;10306;52.128;5.208;2023-02-25T12:53:32;4.97;;;0.97;;
20294;SDS011;10306;52.128;5.208;2023-02-25T13:04:03;5.00;;;0.80;;
20294;SDS011;10306;52.128;5.208;2023-02-25T13:17:19;1.63;;;1.00;;
20294;SDS011;10306;52.128;5.208;2023-02-25T13:25:08;1.40;;;1.10;;
20294;SDS011;10306;52.128;5.208;2023-02-25T13:27:44;1.67;;;1.30;;
20294;SDS011;10306;52.128;5.208;2023-02-25T13:33:02;1.20;;;1.20;;
20294;SDS011;10306;52.128;5.208;2023-02-25T13:38:21;3.50;;;1.00;;
20294;SDS011;10306;52.128;5.208;2023-02-25T13:41:07;4.20;;;1.33;;
20294;SDS011;10306;52.128;5.208;2023-02-25T13:46:09;2.00;;;1.20;;
20294;SDS011;10306;52.128;5.208;2023-02-25T13:48:41;2.77;;;1.13;;
20294;SDS011;10306;52.128;5.208;2023-02-25T13:58:35;2.53;;;1.10;;
20294;SDS011;10306;52.128;5.208;2023-02-25T14:01:19;1.70;;;1.07;;
20294;SDS011;10306;52.128;5.208;2023-02-25T14:03:58;1.23;;;1.03;;
20294;SDS011;10306;52.128;5.208;2023-02-25T14:16:59;3.40;;;1.10;;
20294;SDS011;10306;52.128;5.208;2023-02-25T14:19:36;2.50;;;1.30;;
20294;SDS011;10306;52.128;5.208;2023-02-25T14:22:18;7.20;;;1.40;;
20294;SDS011;10306;52.128;5.208;2023-02-25T14:30:53;3.50;;;1.03;;
20294;SDS011;10306;52.128;5.208;2023-02-25T14:33:31;2.07;;;1.10;;
20294;SDS011;10306;52.128;5.208;2023-02-25T14:36:10;3.27;;;0.83;;
20294;SDS011;10306;52.128;5.208;2023-02-25T14:43:56;2.30;;;1.33;;
20294;SDS011;10306;52.128;5.208;2023-02-25T14:46:40;2.27;;;0.90;;
20294;SDS011;10306;52.128;5.208;2023-02-25T14:49:20;2.17;;;1.23;;
20294;SDS011;10306;52.128;5.208;2023-02-25T14:54:29;2.90;;;1.30;;
20294;SDS011;10306;52.128;5.208;2023-02-25T15:02:28;3.70;;;1.17;;
20294;SDS011;10306;52.128;5.208;2023-02-25T15:10:46;1.43;;;1.00;;
20294;SDS011;10306;52.128;5.208;2023-02-25T15:20:54;2.47;;;0.97;;
20294;SDS011;10306;52.128;5.208;2023-02-25T15:23:20;1.93;;;0.90;;
20294;SDS011;10306;52.128;5.208;2023-02-25T15:26:16;2.77;;;1.20;;
20294;SDS011;10306;52.128;5.208;2023-02-25T15:28:38;3.30;;;1.10;;
20294;SDS011;10306;52.128;5.208;2023-02-25T15:31:07;4.50;;;1.10;;
20294;SDS011;10306;52.128;5.208;2023-02-25T15:36:00;1.17;;;0.87;;
20294;SDS011;10306;52.128;5.208;2023-02-25T15:43:49;2.40;;;0.80;;
20294;SDS011;10306;52.128;5.208;2023-02-25T15:49:18;1.13;;;0.90;;
20294;SDS011;10306;52.128;5.208;2023-02-25T15:51:50;2.10;;;1.20;;
20294;SDS011;10306;52.128;5.208;2023-02-25T15:57:02;6.00;;;3.53;;
20294;SDS011;10306;52.128;5.208;2023-02-25T16:07:20;1.50;;;1.13;;
20294;SDS011;10306;52.128;5.208;2023-02-25T16:09:57;2.83;;;1.30;;
20294;SDS011;10306;52.128;5.208;2023-02-25T16:12:24;3.70;;;1.30;;
20294;SDS011;10306;52.128;5.208;2023-02-25T16:14:51;1.20;;;1.00;;
20294;SDS011;10306;52.128;5.208;2023-02-25T16:17:19;2.30;;;1.00;;
20294;SDS011;10306;52.128;5.208;2023-02-25T16:19:46;2.10;;;1.20;;
20294;SDS011;10306;52.128;5.208;2023-02-25T16:22:16;3.27;;;1.30;;
20294;SDS011;10306;52.128;5.208;2023-02-25T16:24:45;3.30;;;1.10;;
20294;SDS011;10306;52.128;5.208;2023-02-25T16:27:18;5.63;;;1.20;;
20294;SDS011;10306;52.128;5.208;2023-02-25T16:34:45;5.03;;;1.20;;
20294;SDS011;10306;52.128;5.208;2023-02-25T16:37:16;3.27;;;1.10;;
20294;SDS011;10306;52.128;5.208;2023-02-25T16:39:44;2.07;;;0.97;;
20294;SDS011;10306;52.128;5.208;2023-02-25T16:42:12;0.90;;;0.90;;
20294;SDS011;10306;52.128;5.208;2023-02-25T16:44:39;6.77;;;1.20;;
20294;SDS011;10306;52.128;5.208;2023-02-25T16:47:22;2.30;;;1.00;;
20294;SDS011;10306;52.128;5.208;2023-02-25T16:49:50;11.07;;;1.33;;
20294;SDS011;10306;52.128;5.208;2023-02-25T16:52:18;2.50;;;0.97;;
20294;SDS011;10306;52.128;5.208;2023-02-25T16:54:45;2.43;;;1.13;;
20294;SDS011;10306;52.128;5.208;2023-02-25T16:57:18;5.80;;;1.30;;
20294;SDS011;10306;52.128;5.208;2023-02-25T16:59:45;4.03;;;1.40;;
20294;SDS011;10306;52.128;5.208;2023-02-25T17:04:45;2.73;;;1.33;;
20294;SDS011;10306;52.128;5.208;2023-02-25T17:09:50;7.63;;;1.50;;
20294;SDS011;10306;52.128;5.208;2023-02-25T17:12:49;3.97;;;1.43;;
20294;SDS011;10306;52.128;5.208;2023-02-25T17:17:47;7.73;;;1.67;;
20294;SDS011;10306;52.128;5.208;2023-02-25T17:20:15;6.23;;;1.60;;
20294;SDS011;10306;52.128;5.208;2023-02-25T17:22:43;2.27;;;1.53;;
20294;SDS011;10306;52.128;5.208;2023-02-25T17:25:13;2.03;;;1.20;;
20294;SDS011;10306;52.128;5.208;2023-02-25T17:27:40;3.13;;;1.20;;
20294;SDS011;10306;52.128;5.208;2023-02-25T17:30:51;7.43;;;2.27;;
20294;SDS011;10306;52.128;5.208;2023-02-25T17:32:53;5.37;;;1.80;;
20294;SDS011;10306;52.128;5.208;2023-02-25T17:35:23;4.10;;;1.87;;
20294;SDS011;10306;52.128;5.208;2023-02-25T17:37:50;5.47;;;1.90;;
20294;SDS011;10306;52.128;5.208;2023-02-25T17:40:16;3.00;;;1.70;;
20294;SDS011;10306;52.128;5.208;2023-02-25T17:42:42;8.73;;;1.90;;
20294;SDS011;10306;52.128;5.208;2023-02-25T17:47:55;3.20;;;1.90;;
20294;SDS011;10306;52.128;5.208;2023-02-25T17:50:28;4.33;;;1.60;;
20294;SDS011;10306;52.128;5.208;2023-02-25T17:52:55;2.93;;;1.60;;
20294;SDS011;10306;52.128;5.208;2023-02-25T17:55:26;4.67;;;1.80;;
20294;SDS011;10306;52.128;5.208;2023-02-25T17:57:55;4.07;;;1.60;;
20294;SDS011;10306;52.128;5.208;2023-02-25T18:00:23;1.93;;;1.50;;
20294;SDS011;10306;52.128;5.208;2023-02-25T18:03:35;5.97;;;1.93;;
20294;SDS011;10306;52.128;5.208;2023-02-25T18:05:41;4.13;;;1.70;;
20294;SDS011;10306;52.128;5.208;2023-02-25T18:08:15;3.27;;;1.67;;
20294;SDS011;10306;52.128;5.208;2023-02-25T18:10:42;6.63;;;1.90;;
20294;SDS011;10306;52.128;5.208;2023-02-25T18:13:15;8.40;;;2.10;;
20294;SDS011;10306;52.128;5.208;2023-02-25T18:15:43;3.13;;;2.40;;
20294;SDS011;10306;52.128;5.208;2023-02-25T18:18:13;4.53;;;3.00;;
20294;SDS011;10306;52.128;5.208;2023-02-25T18:20:42;3.37;;;2.87;;
20294;SDS011;10306;52.128;5.208;2023-02-25T18:25:46;3.33;;;2.87;;
20294;SDS011;10306;52.128;5.208;2023-02-25T18:30:38;9.90;;;4.07;;